In Rescue
 
Open Full Screen Window  High Contrast Mode
August 12, 2020 1:28 AM CDT
Weather Information
Wind Direction
  ---
Wind Speed
  00 kt (0 mph)
Wind Gust
  00 kt (0 mph)
Altimeter
30.03 in
Visibility
10 SM
Temperature
20° C
68° F
Dewpoint
15° C
59° F
Humidity
73%
1hr Rain Fall
00.00 in.
24hr Rain Fall
00.00 in.
Sky Condition
Clear
VFR

METAR KSGS 120628Z AUTO 00000KT 10SM CLR 20/15 A3003 RMK AO2 T02040150 PWINO

FAA Disclaimer: The data displayed is for advisory purposes only and is not to be used for flight planning or operations.